Flight Track Log - Related Links

Times and Time Zones

All times are in EDT time to prevent confusion due to time zone crossing. See the ASQ5883 flight status page for this flight to view local times or setup timezone preferences in your user account.

Time Position Orientation Groundspeed Altitude Reporting Facility
EDT Latitude Longitude Course Direction KTS MPH feet Rate Location/Type
Mon 07:04:25 PM 36.9328 -76.1661 37° Northeast 182 209 1,800  Level Washington Center
Mon 07:05:31 PM 36.9575 -76.2208 299° West 235 270 3,700 2,093 Climbing Washington Center
Mon 07:06:34 PM 36.9425 -76.3039 257° West 249 287 6,300 2,446 Climbing Washington Center
Mon 07:07:41 PM 36.9294 -76.3922 260° West 246 283 9,000 1,985 Climbing Washington Center
Mon 07:08:50 PM 36.9456 -76.4936 281° West 258 297 10,800 1,313 Climbing Washington Center
Mon 07:09:49 PM 36.9633 -76.5928 283° West 270 311 11,800 1,008 Climbing Washington Center
Mon 07:10:49 PM 36.9833 -76.7022 283° West 297 342 12,800 992 Climbing Washington Center
Mon 07:11:50 PM 37.0031 -76.8117 283° West 313 360 13,800 984 Climbing Washington Center
Mon 07:12:51 PM 37.0228 -76.9239 282° West 328 377 14,800 1,008 Climbing Washington Center
Mon 07:13:49 PM 37.0444 -77.0414 283° West 335 386 15,800 1,008 Climbing Washington Center
Mon 07:14:50 PM 37.0639 -77.1586 282° West 340 391 16,800 934 Climbing Washington Center
Mon 07:15:51 PM 37.0853 -77.2739 283° West 340 391 17,700 893 Climbing Washington Center
Mon 07:16:51 PM 37.1064 -77.3914 283° West 340 391 18,600 974 Climbing Washington Center
Mon 07:17:48 PM 37.1275 -77.5092 283° West 340 391 19,600 1,017 Climbing Washington Center
Mon 07:18:49 PM 37.1611 -77.6247 290° West 345 397 20,600 984 Climbing Washington Center
Mon 07:19:50 PM 37.2136 -77.7278 303° West 345 397 21,600 984 Climbing Washington Center
Mon 07:20:51 PM 37.2681 -77.8311 304° West 350 403 22,600 942 Climbing Washington Center
Mon 07:21:51 PM 37.3181 -77.9344 301° West 355 409 23,500 966 Climbing Washington Center
Mon 07:22:49 PM 37.3703 -78.0378 302° West 355 409 24,500 1,008 Climbing Washington Center
Mon 07:23:50 PM 37.4225 -78.1389 303° West 349 402 25,500 893 Climbing Washington Center
Mon 07:24:50 PM 37.4706 -78.2322 303° West 349 402 26,300 992 Climbing Washington Center
Mon 07:25:51 PM 37.5244 -78.3414 302° West 349 402 27,500 1,059 Climbing Washington Center
Mon 07:26:49 PM 37.5744 -78.4375 303° West 343 395 28,400 915 Climbing Washington Center
Mon 07:27:49 PM 37.6219 -78.5361 301° West 343 395 29,300 950 Climbing Washington Center
Mon 07:28:49 PM 37.6697 -78.6325 302° West 333 383 30,300 942 Climbing Washington Center
Mon 07:29:50 PM 37.7133 -78.7208 302° West 333 383 31,200 836 Climbing Washington Center
Mon 07:30:51 PM 37.7608 -78.8175 302° West 327 376 32,000 397 Climbing Washington Center
Mon 07:31:51 PM 37.8122 -78.9222 302° West 327 376 32,000  Level Washington Center
Mon 07:32:48 PM 37.8714 -79.0433 302° West 354 407 32,000  Level Washington Center
Mon 07:33:50 PM 37.9306 -79.1539 304° West 368 423 32,000  Level Washington Center
Mon 07:34:51 PM 37.9986 -79.2547 311° West 379 436 32,000  Level Washington Center
Mon 07:35:48 PM 38.0603 -79.3447 311° West 379 436 32,000 151 Level Washington Center
Mon 07:36:50 PM 38.1281 -79.4458 310° West 379 436 32,300 590 Climbing Washington Center
Mon 07:37:50 PM 38.1917 -79.5442 309° West 374 430 33,200 843 Climbing Washington Center
Mon 07:38:51 PM 38.2531 -79.6400 309° West 368 423 34,000 915 Climbing Washington Center
Mon 07:39:48 PM 38.3225 -79.7442 310° West 362 417 35,000 508 Climbing Washington Center
Mon 07:40:49 PM 38.3858 -79.8431 309° West 357 411 35,000  Level Washington Center
Mon 07:41:50 PM 38.4511 -79.9425 310° West 362 417 35,000  Level Washington Center
Mon 07:42:51 PM 38.5100 -80.0386 308° West 369 425 35,000 252 Level Washington Center
Mon 07:43:49 PM 38.5792 -80.1386 312° West 375 432 35,500 408 Climbing Washington Center
Mon 07:45:18 PM 38.6675 -80.2772 309° West 365 420 36,000 200 Climbing Indianapolis Center
Mon 07:46:19 PM 38.7350 -80.3792 310° West 374 430 36,000  Level Indianapolis Center
Mon 07:47:21 PM 38.8164 -80.5050 310° West 383 441 36,000  Level Indianapolis Center
Mon 07:48:23 PM 38.8758 -80.6178 304° West 383 441 36,000  Level Indianapolis Center
Mon 07:49:24 PM 38.9300 -80.7289 302° West 374 430 36,000  Level Indianapolis Center
Mon 07:50:26 PM 38.9847 -80.8358 303° West 363 418 36,000  Level Indianapolis Center
Mon 07:51:27 PM 39.0361 -80.9431 302° West 356 410 36,000  Level Indianapolis Center
Mon 07:52:29 PM 39.0886 -81.0514 302° West 356 410 36,000  Level Indianapolis Center
Mon 07:53:31 PM 39.1439 -81.1625 303° West 370 426 36,000  Level Indianapolis Center
Mon 07:54:32 PM 39.2078 -81.2944 302° West 365 420 36,000  Level Indianapolis Center
Mon 07:55:34 PM 39.2622 -81.4067 302° West 369 425 36,000  Level Indianapolis Center
Mon 07:56:35 PM 39.3164 -81.5200 302° West 371 427 36,000  Level Indianapolis Center
Mon 07:57:37 PM 39.3708 -81.6331 302° West 372 428 36,000  Level Indianapolis Center
Mon 07:58:39 PM 39.4239 -81.7447 302° West 366 421 36,000  Level Indianapolis Center
Mon 07:59:40 PM 39.4756 -81.8536 302° West 357 411 36,000  Level Indianapolis Center
Mon 08:00:42 PM 39.5267 -81.9606 302° West 351 404 36,000  Level Indianapolis Center
Mon 08:01:43 PM 39.5872 -82.0889 302° West 350 403 36,000  Level Indianapolis Center
Mon 08:02:45 PM 39.6378 -82.1956 302° West 350 403 36,000  Level Indianapolis Center
Mon 08:03:47 PM 39.6892 -82.3047 301° West 352 405 36,000  Level Indianapolis Center
Mon 08:04:48 PM 39.7408 -82.4167 301° West 357 411 36,000  Level Indianapolis Center
Mon 08:05:50 PM 39.7942 -82.5283 302° West 361 415 36,000  Level Indianapolis Center
Mon 08:06:51 PM 39.8472 -82.6425 301° West 365 420 36,000  Level Indianapolis Center
Mon 08:07:53 PM 39.8997 -82.7581 301° West 369 425 36,000  Level Indianapolis Center
Mon 08:08:54 PM 39.9531 -82.8725 301° West 369 425 36,000  Level Indianapolis Center
Mon 08:09:56 PM 40.0139 -83.0069 301° West 368 423 36,000  Level Indianapolis Center
Mon 08:10:57 PM 40.0667 -83.1219 301° West 370 426 36,000  Level Indianapolis Center
Mon 08:11:59 PM 40.1197 -83.2372 301° West 370 426 36,000  Level Indianapolis Center
Mon 08:13:01 PM 40.1711 -83.3508 301° West 365 420 36,000  Level Indianapolis Center
Mon 08:14:02 PM 40.2217 -83.4614 301° West 354 407 36,000  Level Indianapolis Center
Mon 08:15:04 PM 40.2711 -83.5733 300° West 355 409 36,000 -49 Level Indianapolis Center
Mon 08:16:05 PM 40.3233 -83.6875 301° West 361 415 35,900 -49 Descending Indianapolis Center
Mon 08:17:07 PM 40.3733 -83.7992 300° West 354 407 35,900 49 Level Indianapolis Center
Mon 08:18:08 PM 40.4308 -83.9286 300° West 349 402 36,000 -341 Climbing Indianapolis Center
Mon 08:19:10 PM 40.4811 -84.0422 300° West 355 409 35,200 -871 Descending Indianapolis Center
Mon 08:20:12 PM 40.5314 -84.1542 301° West 353 406 34,200 -585 Descending Indianapolis Center
Mon 08:21:13 PM 40.5794 -84.2642 300° West 346 398 34,000 -98 Descending Indianapolis Center
Mon 08:22:15 PM 40.6275 -84.3722 300° West 342 394 34,000  Level Indianapolis Center
Mon 08:23:26 PM 40.6828 -84.5006 300° West 348 400 34,000  Level Chicago Center
Mon 08:24:28 PM 40.7308 -84.6119 300° West 350 403 34,000  Level Chicago Center
Mon 08:25:30 PM 40.7803 -84.7231 300° West 350 403 34,000  Level Chicago Center
Mon 08:26:32 PM 40.8247 -84.8381 297° West 351 404 34,000  Level Chicago Center
Mon 08:27:34 PM 40.8769 -84.9744 297° West 348 400 34,000  Level Chicago Center
Mon 08:28:36 PM 40.9231 -85.0908 298° West 354 407 34,000 -145 Level Chicago Center
Mon 08:29:38 PM 40.9694 -85.2103 297° West 361 415 33,700 -919 Descending Chicago Center
Mon 08:30:40 PM 41.0158 -85.3322 297° West 368 423 32,100 -1,500 Descending Chicago Center
Mon 08:31:42 PM 41.0650 -85.4586 297° West 378 435 30,600 -1,742 Descending Chicago Center
Mon 08:32:44 PM 41.1133 -85.5856 297° West 384 442 28,500 -2,160 Descending Chicago Center
Mon 08:33:47 PM 41.1717 -85.7378 297° West 385 443 26,100 -1,680 Descending Chicago Center
Mon 08:34:49 PM 41.2206 -85.8703 296° West 396 456 25,000 -532 Descending Chicago Center
Mon 08:35:51 PM 41.2694 -85.9989 297° West 392 451 25,000  Level Chicago Center
Mon 08:36:53 PM 41.3081 -86.1339 291° West 389 448 25,000  Level Chicago Center
Mon 08:37:55 PM 41.3431 -86.2728 289° West 393 452 25,000 -339 Level Chicago Center
Mon 08:38:57 PM 41.3772 -86.4139 288° West 398 458 24,300 -1,306 Descending Chicago Center
Mon 08:39:59 PM 41.4125 -86.5492 289° West 390 449 22,300 -2,177 Descending Chicago Center
Mon 08:41:01 PM 41.4511 -86.7081 288° West 378 435 19,800 -2,226 Descending Chicago Center
Mon 08:42:03 PM 41.4817 -86.8314 288° West 370 426 17,700 -1,984 Descending Chicago Center
Mon 08:43:05 PM 41.5119 -86.9542 288° West 354 407 15,700 -2,177 Descending Chicago Center
Mon 08:44:07 PM 41.5478 -87.1008 288° West 348 400 13,200 -1,981 Descending Chicago Center
Mon 08:44:48 PM 41.5667 -87.1833 287° West 343 395 12,300 -673 Descending Chicago TRACON
Mon 08:45:54 PM 41.6167 -87.3000 300° West 337 388 12,000 -214 Descending Chicago TRACON
Mon 08:46:12 PM 41.6289 -87.3208 308° West 337 388 12,000  Level Chicago Center
Mon 08:47:14 PM 41.6889 -87.4169 310° West 339 390 12,000 -387 Level Chicago Center
Mon 08:48:16 PM 41.7467 -87.5081 310° West 328 377 11,200 -629 Descending Chicago Center
Mon 08:49:18 PM 41.8231 -87.5994 318° Northwest 310 357 10,700 -783 Descending Chicago Center
Mon 08:49:48 PM 41.8500 -87.6333 317° Northwest 256 295 10,000 -1,467 Descending Chicago TRACON
Mon 08:50:48 PM 41.9000 -87.6833 323° Northwest 260 299 8,500 -1,417 Descending Chicago TRACON
Mon 08:51:55 PM 41.9833 -87.6833 360° North 247 284 7,000 -1,181 Descending Chicago TRACON
Mon 08:52:55 PM 42.0333 -87.6833 360° North 195 224 6,000 -1,421 Descending Chicago TRACON
Mon 08:53:49 PM 42.0833 -87.7167 334° Northwest 196 226 4,300 -1,750 Descending Chicago TRACON
Mon 08:54:55 PM 42.0833 -87.8000 270° West 182 209 2,500 -1,095 Descending Chicago TRACON
Mon 08:55:55 PM 42.0500 -87.8500 228° Southwest 168 193 2,000 -650 Descending Chicago TRACON
Mon 08:56:55 PM 42.0167 -87.8667 200° South 130 150 1,200 -800 Descending Chicago TRACON
Mon 08:59:00 PM 41.9817 -87.9067 304° West  Level Estimated

Login

Don't have an account? Register now (free) for customized features, flight alerts, and more!